Ringling, OK (73456)

12:54 AM CST on February 12, 2016 (GMT -0600)
Ringling | | Change Station
CLOSE
Current Station
Personal Weather Station
Location: Ringling, OK
Elevation: 860 ft
Nearby Weather Stations

Elev 860 ft 34.18 °N, 97.67 °W | Updated 1 minute ago

Clear
Clear
35.6 °F
Feels Like 36 °F
N
2.2
Wind Variable Wind from West

Today
High -- | Low -- °F
--% Chance of Precip.
Yesterday
High -- | Low -- °F
Precip. -- in
Pressure 30.17 in
Visibility 10.0 miles
Clouds Clear
Windchill 36 °F
Dew Point 32 °F
Humidity 86%
Rainfall 0.00 in
Snow Depth Not available.
7:18 AM 6:11 PM
Waxing Crescent, 18% visible
METAR K1F0 120635Z AUTO 00000KT 10SM CLR 08/M01 A3017 RMK AO2
Pressure 30.17 in
Visibility 10.0 miles
Clouds Clear
Windchill 36 °F
Dew Point 32 °F
Humidity 86%
Rainfall 0.00 in
Snow Depth Not available.
7:18 AM 6:11 PM
Waxing Crescent, 18% visible
METAR K1F0 120635Z AUTO 00000KT 10SM CLR 08/M01 A3017 RMK AO2

10-Day Weather Forecast

Almanac

Astronomy

Feb. 12, 2016 Rise Set
Actual Time
Civil Twilight
Nautical Twilight
Astronomical Twilight
Moon
Length of Visible Light
Length of Day
Tomorrow will be .
, % of the Moon is Illuminated

Today's Extremes

State Highs State Lows

Community

WunderPhotos

Upload Photos

1,892,276 photos uploaded!

WunderBlog® & News

Nearby

Air Quality

  Air Quality AQ Index Pollutant
Not available.

Snow Depth

Station Depth Elevation

Earthquake Activity

City Distance Mag. Time & Date
Minimum magnitude displayed is 2.5.

Coastal Water Temperatures

Place Temperature

Stations

Nearby Weather Stations

Station Location Temp. Windchill Dew Point Humidity Wind Precip. Elev Updated Type
                   

Watches & Warnings

There are currently no watches in effect.